Time;durP1;ratioP1;P1;durP2;ratioP2;P2;SDS_P1;SDS_P2;PMS_P1;PMS_P2;Temp;Humidity;BMP_temperature;BMP_pressure;BME280_temperature;BME280_humidity;BME280_pressure;Samples;Min_cycle;Max_cycle;Signal;HPM_P1;HPM_P2
2022/08/05 00:01:47;;;;;;;9.80;4.75;;;21.10;99.90;;;;;;5050359;28;20056;-76
2022/08/05 00:04:13;;;;;;;6.00;3.83;;;21.10;99.90;;;;;;5050916;28;20029;-77
2022/08/05 00:06:38;;;;;;;5.15;3.60;;;21.00;99.90;;;;;;5050534;28;20037;-77
2022/08/05 00:09:05;;;;;;;7.97;4.38;;;21.00;99.90;;;;;;5050912;28;20051;-77
2022/08/05 00:11:30;;;;;;;8.80;4.30;;;20.90;99.90;;;;;;5050374;28;20040;-77
2022/08/05 00:13:56;;;;;;;4.95;4.10;;;20.90;99.90;;;;;;5035065;28;20477;-76
2022/08/05 00:16:22;;;;;;;7.20;4.15;;;20.80;99.90;;;;;;5050309;28;20025;-77
2022/08/05 00:18:48;;;;;;;7.15;4.18;;;20.70;99.90;;;;;;5050153;28;20097;-76
2022/08/05 00:21:16;;;;;;;13.52;4.50;;;20.70;99.90;;;;;;5050424;28;20041;-76
2022/08/05 00:23:43;;;;;;;6.63;4.18;;;20.70;99.90;;;;;;5050017;28;20025;-76
2022/08/05 00:26:09;;;;;;;6.78;4.13;;;20.60;99.90;;;;;;5050211;28;20025;-77
2022/08/05 00:28:35;;;;;;;6.32;4.15;;;20.60;99.90;;;;;;5049721;28;20036;-77
2022/08/05 00:31:02;;;;;;;5.28;4.30;;;20.50;99.90;;;;;;5049770;28;20103;-77
2022/08/05 00:33:28;;;;;;;7.80;4.50;;;20.50;99.90;;;;;;5049650;28;20021;-77
2022/08/05 00:35:54;;;;;;;7.63;4.28;;;20.40;99.90;;;;;;5049274;28;20048;-77
2022/08/05 00:38:20;;;;;;;7.88;4.20;;;20.40;99.90;;;;;;5049929;28;20035;-77
2022/08/05 00:40:50;;;;;;;6.88;4.35;;;20.30;99.90;;;;;;5049596;28;20390;-76
2022/08/05 00:43:16;;;;;;;5.13;4.10;;;20.30;99.90;;;;;;5050002;28;20075;-77
2022/08/05 00:45:42;;;;;;;8.95;4.75;;;20.30;99.90;;;;;;5049827;28;20041;-77
2022/08/05 00:48:12;;;;;;;12.10;5.90;;;20.30;99.90;;;;;;5031790;28;20474;-77
2022/08/05 00:50:40;;;;;;;9.25;5.00;;;20.30;99.90;;;;;;5050118;28;20025;-77
2022/08/05 00:53:05;;;;;;;9.48;5.82;;;20.20;99.90;;;;;;5049919;28;20115;-77
2022/08/05 00:55:33;;;;;;;8.25;4.70;;;20.20;99.90;;;;;;5049647;28;20112;-77
2022/08/05 00:57:59;;;;;;;6.25;4.47;;;20.20;99.90;;;;;;5052093;28;20056;-77
2022/08/05 01:00:29;;;;;;;6.45;4.35;;;20.20;99.90;;;;;;5053500;28;20067;-76
2022/08/05 01:02:56;;;;;;;7.38;4.32;;;20.20;99.90;;;;;;5053560;28;20045;-77
2022/08/05 01:05:22;;;;;;;12.07;5.45;;;20.20;99.90;;;;;;5053085;28;20103;-77
2022/08/05 01:07:48;;;;;;;7.47;4.20;;;20.10;99.90;;;;;;5035638;28;20051;-77
2022/08/05 01:10:15;;;;;;;6.13;4.50;;;20.10;99.90;;;;;;5053380;28;20057;-77
2022/08/05 01:12:45;;;;;;;10.60;4.45;;;20.10;99.90;;;;;;5046386;28;20051;-76
2022/08/05 01:15:14;;;;;;;7.93;4.57;;;20.00;99.90;;;;;;5037728;28;20106;-77
2022/08/05 01:17:46;;;;;;;5.55;4.40;;;20.00;99.90;;;;;;5053577;28;20377;-76
2022/08/05 01:20:31;;;;;;;6.53;4.50;;;20.00;99.90;;;;;;5052765;28;20033;-76
2022/08/05 01:23:34;;;;;;;6.88;4.03;;;20.00;99.90;;;;;;5053443;28;20374;-76
2022/08/05 01:26:26;;;;;;;6.13;4.13;;;19.90;99.90;;;;;;5045563;28;20025;-76
2022/08/05 01:29:01;;;;;;;7.72;4.38;;;19.90;99.90;;;;;;5053411;28;20100;-76
2022/08/05 01:31:42;;;;;;;6.30;4.38;;;19.90;99.90;;;;;;5039414;28;20531;-76
2022/08/05 01:34:34;;;;;;;5.90;4.28;;;19.90;99.90;;;;;;5052930;28;20695;-76
2022/08/05 01:37:15;;;;;;;6.45;4.10;;;19.90;99.90;;;;;;5053221;28;20032;-76
2022/08/05 01:39:43;;;;;;;7.50;5.20;;;19.90;99.90;;;;;;5052997;28;20021;-76
2022/08/05 01:42:13;;;;;;;6.40;4.13;;;19.80;99.90;;;;;;5052890;28;20079;-76
2022/08/05 01:44:39;;;;;;;7.20;4.40;;;19.80;99.90;;;;;;5052651;28;20037;-76
2022/08/05 01:47:06;;;;;;;7.75;4.50;;;19.70;99.90;;;;;;5053273;28;20094;-76
2022/08/05 01:49:32;;;;;;;6.68;4.50;;;19.80;99.90;;;;;;5052970;28;20037;-76
2022/08/05 01:52:01;;;;;;;8.10;3.95;;;19.70;99.90;;;;;;5053245;28;20051;-77
2022/08/05 01:54:38;;;;;;;6.10;3.90;;;19.70;99.90;;;;;;5052930;28;20029;-76
2022/08/05 01:57:07;;;;;;;6.95;4.18;;;19.60;99.90;;;;;;5039794;28;20128;-76
2022/08/05 01:59:35;;;;;;;5.85;4.18;;;19.60;99.90;;;;;;5052720;28;20041;-76
2022/08/05 02:02:02;;;;;;;6.90;4.30;;;19.60;99.90;;;;;;5052823;28;20100;-76
2022/08/05 02:04:31;;;;;;;5.25;4.35;;;19.50;99.90;;;;;;5053144;28;20477;-76
2022/08/05 02:06:57;;;;;;;8.35;4.28;;;19.50;99.90;;;;;;5052367;28;20389;-76
2022/08/05 02:09:23;;;;;;;9.45;4.75;;;19.50;99.90;;;;;;5051590;28;20506;-76
2022/08/05 02:12:04;;;;;;;5.68;4.32;;;19.50;99.90;;;;;;5050153;28;20025;-76
2022/08/05 02:14:36;;;;;;;7.00;4.28;;;19.50;99.90;;;;;;5049464;28;20373;-76
2022/08/05 02:17:15;;;;;;;6.68;4.43;;;19.50;99.90;;;;;;5051818;28;20029;-76
2022/08/05 02:19:47;;;;;;;6.00;4.47;;;19.40;99.90;;;;;;5044563;28;20040;-76
2022/08/05 02:22:15;;;;;;;7.00;4.75;;;19.40;99.90;;;;;;5052369;28;20460;-76
2022/08/05 02:24:48;;;;;;;12.63;4.80;;;19.40;99.90;;;;;;5052124;28;20048;-76
2022/08/05 02:27:15;;;;;;;6.03;4.78;;;19.30;99.90;;;;;;5051789;28;20568;-77
2022/08/05 02:29:43;;;;;;;7.88;4.70;;;19.30;99.90;;;;;;5051969;28;20100;-76
2022/08/05 02:32:11;;;;;;;8.07;4.50;;;19.30;99.90;;;;;;5052251;28;20017;-76
2022/08/05 02:34:37;;;;;;;4.50;4.10;;;19.20;99.90;;;;;;5052030;28;20025;-76
2022/08/05 02:37:06;;;;;;;6.78;4.22;;;19.20;99.90;;;;;;5051677;28;20021;-76
2022/08/05 02:39:36;;;;;;;7.18;4.75;;;19.10;99.90;;;;;;5033942;28;20025;-77
2022/08/05 02:42:03;;;;;;;10.55;4.50;;;19.10;99.90;;;;;;5038523;28;20548;-76
2022/08/05 02:44:33;;;;;;;6.60;4.80;;;19.10;99.90;;;;;;5051894;28;20025;-76
2022/08/05 02:46:59;;;;;;;6.90;3.97;;;19.10;99.90;;;;;;5051789;28;20025;-76
2022/08/05 02:49:28;;;;;;;4.78;4.18;;;19.10;99.90;;;;;;5052240;28;20378;-76
2022/08/05 02:51:56;;;;;;;9.50;4.68;;;19.00;99.90;;;;;;5051676;28;20021;-76
2022/08/05 02:54:23;;;;;;;7.20;4.93;;;19.00;99.90;;;;;;5051859;28;20320;-76
2022/08/05 02:56:50;;;;;;;7.30;4.50;;;19.00;99.90;;;;;;5051227;28;20049;-76
2022/08/05 02:59:17;;;;;;;6.85;4.97;;;19.00;99.90;;;;;;5039571;28;20060;-76
2022/08/05 03:01:44;;;;;;;7.43;4.90;;;19.00;99.90;;;;;;5051894;28;20040;-76
2022/08/05 03:04:13;;;;;;;8.25;4.70;;;19.00;99.90;;;;;;5037726;28;20075;-76
2022/08/05 03:06:41;;;;;;;6.07;4.50;;;18.90;99.90;;;;;;5051809;28;20072;-76
2022/08/05 03:09:07;;;;;;;7.43;4.55;;;18.90;99.90;;;;;;5051124;28;20415;-76
2022/08/05 03:11:33;;;;;;;7.53;4.88;;;18.90;99.90;;;;;;5051403;28;20024;-76
2022/08/05 03:13:58;;;;;;;9.68;5.10;;;18.80;99.90;;;;;;5050551;28;20355;-76
2022/08/05 03:16:24;;;;;;;8.00;5.32;;;18.80;99.90;;;;;;5051263;28;20032;-76
2022/08/05 03:18:50;;;;;;;7.47;4.82;;;18.80;99.90;;;;;;5050952;28;20486;-76
2022/08/05 03:21:15;;;;;;;9.38;5.30;;;18.70;99.90;;;;;;5050706;28;20487;-76
2022/08/05 03:23:42;;;;;;;6.40;4.75;;;18.70;99.90;;;;;;5051546;28;20782;-76
2022/08/05 03:26:09;;;;;;;6.38;4.53;;;18.60;99.90;;;;;;5051069;28;20052;-76
2022/08/05 03:28:36;;;;;;;9.57;4.72;;;18.60;99.90;;;;;;5033184;28;20025;-76
2022/08/05 03:31:02;;;;;;;7.18;5.10;;;18.60;99.90;;;;;;5051019;28;20029;-76
2022/08/05 03:33:29;;;;;;;9.95;5.53;;;18.50;99.90;;;;;;5033417;28;20025;-76
2022/08/05 03:35:56;;;;;;;7.45;5.25;;;18.50;99.90;;;;;;5050972;28;20040;-76
2022/08/05 03:38:22;;;;;;;8.07;4.93;;;18.50;99.90;;;;;;5051137;28;20077;-76
2022/08/05 03:40:48;;;;;;;5.78;4.18;;;18.50;99.90;;;;;;5050880;28;20056;-76
2022/08/05 03:43:15;;;;;;;6.00;4.38;;;18.50;99.90;;;;;;5050929;28;20112;-76
2022/08/05 03:45:41;;;;;;;5.60;5.00;;;18.50;99.90;;;;;;5050939;28;20013;-76
2022/08/05 03:48:06;;;;;;;7.38;5.00;;;18.50;99.90;;;;;;5050593;28;20454;-76
2022/08/05 03:51:01;;;;;;;7.13;4.90;;;18.50;99.90;;;;;;5050663;28;20029;-76
2022/08/05 03:53:34;;;;;;;8.93;4.60;;;18.40;99.90;;;;;;5020070;28;20063;-76
2022/08/05 03:56:25;;;;;;;6.93;4.60;;;18.50;99.90;;;;;;5050895;28;20136;-76
2022/08/05 03:58:54;;;;;;;8.70;4.60;;;18.50;99.90;;;;;;5049827;28;20031;-76
2022/08/05 04:01:21;;;;;;;8.77;5.43;;;18.50;99.90;;;;;;5050771;28;20370;-77
2022/08/05 04:03:49;;;;;;;8.02;4.50;;;18.40;99.90;;;;;;5032826;28;20021;-77
2022/08/05 04:06:16;;;;;;;11.55;5.32;;;18.50;99.90;;;;;;5050818;28;20028;-77
2022/08/05 04:08:42;;;;;;;9.20;5.00;;;18.50;99.90;;;;;;5050373;28;20033;-73
2022/08/05 04:11:08;;;;;;;7.13;4.80;;;18.50;99.90;;;;;;5050186;28;20108;-73
2022/08/05 04:13:37;;;;;;;6.22;4.70;;;18.50;99.90;;;;;;5042312;28;20116;-73
2022/08/05 04:16:03;;;;;;;7.10;5.10;;;18.50;99.90;;;;;;5039832;28;20079;-72
2022/08/05 04:18:29;;;;;;;6.22;4.32;;;18.50;99.90;;;;;;5041391;28;20649;-72
2022/08/05 04:20:55;;;;;;;7.35;4.50;;;18.50;99.90;;;;;;5041290;28;20036;-72
2022/08/05 04:23:24;;;;;;;4.95;4.00;;;18.50;99.90;;;;;;5050142;28;20125;-73
2022/08/05 04:25:50;;;;;;;7.93;4.47;;;18.50;99.90;;;;;;5049429;28;20420;-73
2022/08/05 04:28:16;;;;;;;6.40;4.20;;;18.50;99.90;;;;;;5048603;28;20021;-75
2022/08/05 04:30:41;;;;;;;10.52;4.32;;;18.60;99.90;;;;;;5048875;28;20156;-75
2022/08/05 04:33:07;;;;;;;6.78;4.22;;;18.60;99.90;;;;;;5050918;28;20108;-75
2022/08/05 04:35:32;;;;;;;5.32;3.95;;;18.70;99.90;;;;;;5052880;28;20031;-75
2022/08/05 04:37:58;;;;;;;6.57;3.83;;;18.80;99.90;;;;;;5034441;28;20029;-75
2022/08/05 04:40:24;;;;;;;5.65;3.92;;;18.90;99.90;;;;;;5052139;28;20020;-75
2022/08/05 04:42:49;;;;;;;5.93;4.05;;;18.90;99.90;;;;;;5050166;28;20017;-75
2022/08/05 04:45:15;;;;;;;9.13;4.20;;;19.10;99.90;;;;;;5052993;28;20021;-75
2022/08/05 04:47:40;;;;;;;5.72;3.70;;;19.20;99.90;;;;;;5052360;28;20017;-72
2022/08/05 04:50:07;;;;;;;5.95;4.15;;;19.30;99.90;;;;;;5052464;28;20348;-72
2022/08/05 04:52:33;;;;;;;4.85;3.50;;;19.40;99.90;;;;;;5052143;28;20029;-75
2022/08/05 04:54:59;;;;;;;5.82;3.80;;;19.50;99.90;;;;;;5049397;28;20579;-75
2022/08/05 04:57:25;;;;;;;4.63;3.60;;;19.60;99.90;;;;;;5045848;28;20048;-75
2022/08/05 04:59:50;;;;;;;9.32;4.05;;;19.70;99.90;;;;;;5046621;28;20048;-75
2022/08/05 05:02:16;;;;;;;6.97;3.40;;;19.80;99.90;;;;;;5046263;28;20036;-75
2022/08/05 05:04:42;;;;;;;4.32;3.90;;;20.00;99.90;;;;;;5044546;28;20025;-75
2022/08/05 05:07:07;;;;;;;7.50;3.78;;;20.10;99.90;;;;;;5048447;28;20024;-74
2022/08/05 05:09:33;;;;;;;7.88;3.30;;;20.20;99.90;;;;;;5051660;28;20398;-75
2022/08/05 05:11:58;;;;;;;6.78;3.72;;;20.30;99.90;;;;;;5049780;28;20392;-75
2022/08/05 05:14:24;;;;;;;4.70;3.65;;;20.50;99.90;;;;;;5051161;28;20024;-76
2022/08/05 05:16:49;;;;;;;5.65;3.65;;;20.70;99.90;;;;;;5049943;28;20131;-76
2022/08/05 05:19:15;;;;;;;5.85;3.35;;;20.80;99.90;;;;;;5051993;28;20037;-76
2022/08/05 05:21:40;;;;;;;4.28;3.30;;;20.90;99.90;;;;;;5051058;28;20379;-76
2022/08/05 05:24:06;;;;;;;4.55;3.30;;;21.10;99.90;;;;;;5050144;28;20041;-75
2022/08/05 05:26:32;;;;;;;6.75;3.20;;;21.20;99.90;;;;;;5051656;28;20025;-76
2022/08/05 05:28:57;;;;;;;5.43;3.75;;;21.30;99.90;;;;;;5051415;28;20422;-76
2022/08/05 05:31:23;;;;;;;5.95;3.33;;;21.50;99.90;;;;;;5050967;28;20036;-75
2022/08/05 05:33:48;;;;;;;5.32;3.30;;;21.60;99.90;;;;;;5049682;28;20492;-75
2022/08/05 05:36:14;;;;;;;7.07;3.80;;;21.70;99.90;;;;;;5050932;28;20413;-75
2022/08/05 05:38:39;;;;;;;8.43;3.00;;;21.90;99.90;;;;;;5051340;28;20039;-75
2022/08/05 05:41:05;;;;;;;7.40;3.20;;;22.10;99.90;;;;;;5051299;28;20096;-75
2022/08/05 05:43:30;;;;;;;8.40;3.70;;;22.20;99.90;;;;;;5047076;28;20029;-75
2022/08/05 05:45:56;;;;;;;7.88;4.30;;;22.40;99.90;;;;;;5050970;28;20032;-75
2022/08/05 05:48:21;;;;;;;14.43;4.15;;;22.60;99.90;;;;;;5051110;28;20032;-75
2022/08/05 05:50:47;;;;;;;6.55;3.97;;;22.80;99.90;;;;;;5050824;28;20035;-75
2022/08/05 05:53:14;;;;;;;4.75;3.03;;;23.00;99.90;;;;;;5050522;28;20036;-75
2022/08/05 05:55:39;;;;;;;5.57;3.17;;;23.10;99.90;;;;;;5045419;28;20045;-75
2022/08/05 05:58:05;;;;;;;7.15;3.22;;;23.20;99.90;;;;;;5051031;28;20036;-75
2022/08/05 06:00:30;;;;;;;6.40;3.35;;;23.30;99.90;;;;;;5051188;28;20382;-75
2022/08/05 06:02:56;;;;;;;7.72;2.70;;;23.30;99.90;;;;;;5051393;28;20021;-75
2022/08/05 06:05:21;;;;;;;4.35;2.90;;;23.30;99.90;;;;;;5050365;28;20025;-74
2022/08/05 06:07:48;;;;;;;4.78;3.08;;;23.30;99.90;;;;;;5050761;28;20032;-74
2022/08/05 06:10:14;;;;;;;5.30;3.05;;;23.30;99.90;;;;;;5050854;28;20032;-74
2022/08/05 06:12:40;;;;;;;4.50;2.65;;;23.30;99.90;;;;;;5052305;28;20033;-74
2022/08/05 06:15:06;;;;;;;5.72;3.05;;;23.40;99.90;;;;;;5051010;28;20029;-74
2022/08/05 06:17:32;;;;;;;4.25;2.90;;;23.60;99.90;;;;;;5051657;28;20017;-74
2022/08/05 06:19:58;;;;;;;3.08;2.63;;;23.80;99.90;;;;;;5051967;28;20021;-75
2022/08/05 06:22:29;;;;;;;5.13;2.78;;;24.00;99.90;;;;;;5052035;28;20119;-74
2022/08/05 06:24:55;;;;;;;4.93;2.63;;;24.20;99.90;;;;;;5051752;28;20025;-73
2022/08/05 06:27:21;;;;;;;6.30;2.60;;;24.40;99.90;;;;;;5050698;28;20087;-73
2022/08/05 06:29:47;;;;;;;6.18;2.90;;;24.60;99.90;;;;;;5047431;28;20037;-73
2022/08/05 06:32:13;;;;;;;5.88;2.72;;;24.80;99.90;;;;;;5052380;28;20466;-72
2022/08/05 06:34:38;;;;;;;4.10;2.67;;;25.00;99.90;;;;;;5050885;28;20033;-71
2022/08/05 06:37:04;;;;;;;7.60;3.00;;;25.20;99.90;;;;;;5049439;28;20041;-71
2022/08/05 06:39:29;;;;;;;7.22;3.05;;;25.20;99.90;;;;;;5050571;28;20040;-70
2022/08/05 06:41:57;;;;;;;5.10;2.95;;;25.40;99.90;;;;;;5051458;28;20040;-70
2022/08/05 06:44:22;;;;;;;6.28;2.67;;;25.40;99.90;;;;;;5051757;28;20055;-70
2022/08/05 06:46:48;;;;;;;6.03;2.92;;;25.50;99.90;;;;;;5051188;28;20025;-70
2022/08/05 06:49:13;;;;;;;5.47;2.78;;;25.80;99.90;;;;;;5050601;28;20025;-70
2022/08/05 06:51:39;;;;;;;6.38;2.45;;;26.00;99.90;;;;;;5051149;28;20031;-70
2022/08/05 06:54:05;;;;;;;4.68;2.38;;;26.00;99.90;;;;;;5051410;28;20389;-70
2022/08/05 06:56:31;;;;;;;7.68;2.85;;;26.10;99.90;;;;;;5050816;28;20485;-70
2022/08/05 06:58:57;;;;;;;4.63;2.80;;;26.10;99.90;;;;;;5050857;28;20738;-70
2022/08/05 07:01:23;;;;;;;9.73;2.75;;;26.20;99.90;;;;;;5050720;28;20040;-70
2022/08/05 07:03:49;;;;;;;7.32;3.13;;;26.20;99.90;;;;;;5050745;28;20478;-71
2022/08/05 07:06:14;;;;;;;5.40;3.17;;;26.20;99.90;;;;;;5051324;28;20080;-70
2022/08/05 07:08:43;;;;;;;4.25;2.83;;;26.20;99.90;;;;;;5051051;28;20013;-70
2022/08/05 07:11:10;;;;;;;8.00;2.92;;;26.20;99.90;;;;;;5051091;28;20021;-70
2022/08/05 07:19:04;;;;;;;5.28;2.83;;;26.10;99.90;;;;;;5049926;28;20535;-79
2022/08/05 07:21:29;;;;;;;7.30;3.00;;;26.10;99.90;;;;;;5049583;28;20036;-79
2022/08/05 07:23:56;;;;;;;11.57;3.00;;;26.20;99.90;;;;;;5049588;28;20029;-79
2022/08/05 07:26:22;;;;;;;6.28;2.95;;;26.30;99.90;;;;;;5049901;28;20035;-79
2022/08/05 07:28:49;;;;;;;12.80;3.53;;;26.40;99.90;;;;;;5043740;28;20055;-80
2022/08/05 07:31:15;;;;;;;6.97;3.20;;;26.60;99.90;;;;;;5049073;28;20079;-79
2022/08/05 07:33:41;;;;;;;6.47;2.95;;;26.50;99.90;;;;;;5049621;28;20087;-78
2022/08/05 07:36:07;;;;;;;8.75;3.28;;;26.50;99.90;;;;;;5049780;28;20481;-79
2022/08/05 07:38:33;;;;;;;7.88;3.22;;;26.40;99.90;;;;;;5048964;28;20094;-79
2022/08/05 07:40:58;;;;;;;7.13;2.72;;;26.40;99.90;;;;;;5049400;28;20036;-79
2022/08/05 07:43:24;;;;;;;5.88;2.88;;;26.30;99.90;;;;;;5050128;28;20032;-78
2022/08/05 07:45:49;;;;;;;6.63;2.92;;;26.20;99.90;;;;;;5050604;28;20028;-72
2022/08/05 07:48:15;;;;;;;7.18;3.08;;;26.20;99.90;;;;;;5049165;28;20040;-72
2022/08/05 07:50:40;;;;;;;11.10;3.40;;;26.10;99.90;;;;;;5031801;28;20064;-75
2022/08/05 07:53:06;;;;;;;6.40;2.97;;;26.00;99.90;;;;;;5051237;28;20036;-75
2022/08/05 07:55:32;;;;;;;7.05;2.90;;;26.00;99.90;;;;;;5051142;28;20047;-74
2022/08/05 07:57:57;;;;;;;6.43;3.30;;;26.10;99.90;;;;;;5051161;28;20071;-75
2022/08/05 08:00:24;;;;;;;10.68;3.15;;;26.00;99.90;;;;;;5051649;28;20037;-74
2022/08/05 08:02:50;;;;;;;5.70;3.10;;;26.00;99.90;;;;;;5051588;28;20437;-74
2022/08/05 08:05:18;;;;;;;8.23;3.10;;;26.00;99.90;;;;;;5051846;28;20029;-74
2022/08/05 08:07:44;;;;;;;7.13;2.90;;;26.10;99.90;;;;;;5053420;28;20550;-74
2022/08/05 08:10:09;;;;;;;7.95;3.20;;;26.20;99.90;;;;;;5055714;28;20093;-75
2022/08/05 08:12:35;;;;;;;8.10;3.40;;;26.30;99.90;;;;;;5049740;28;20103;-74
2022/08/05 08:15:01;;;;;;;8.20;3.20;;;26.50;99.90;;;;;;5051428;28;20049;-73
2022/08/05 08:17:27;;;;;;;10.73;3.67;;;26.60;99.90;;;;;;5053297;28;20025;-73
2022/08/05 08:19:52;;;;;;;5.20;3.70;;;26.70;99.90;;;;;;5035428;28;20052;-73
2022/08/05 08:22:25;;;;;;;7.53;4.13;;;26.60;99.90;;;;;;5052774;28;20079;-73
2022/08/05 08:24:51;;;;;;;8.60;3.80;;;26.60;99.90;;;;;;5050520;28;20048;-73
2022/08/05 08:27:17;;;;;;;7.25;3.85;;;26.50;99.90;;;;;;5053382;28;20469;-73
2022/08/05 08:29:42;;;;;;;6.50;3.40;;;26.40;99.90;;;;;;5052827;28;20108;-73
2022/08/05 08:32:08;;;;;;;6.05;3.42;;;26.30;99.90;;;;;;5051732;28;20021;-73
2022/08/05 08:34:33;;;;;;;10.98;3.60;;;26.30;99.90;;;;;;5051484;28;20064;-73
2022/08/05 08:36:59;;;;;;;9.57;3.65;;;26.30;99.90;;;;;;5052520;28;20068;-73
2022/08/05 08:39:25;;;;;;;9.70;3.45;;;26.20;99.90;;;;;;5052657;28;20037;-73
2022/08/05 08:41:53;;;;;;;6.80;3.75;;;26.20;99.90;;;;;;5052634;28;20091;-73
2022/08/05 08:44:20;;;;;;;6.43;3.33;;;26.20;99.90;;;;;;5052681;28;20032;-73
2022/08/05 08:46:47;;;;;;;12.00;3.83;;;26.30;99.90;;;;;;5052939;28;20087;-73
2022/08/05 08:49:14;;;;;;;8.38;3.58;;;26.30;99.90;;;;;;5048971;28;20078;-73
2022/08/05 08:51:41;;;;;;;8.65;3.97;;;26.30;99.90;;;;;;5045848;28;20060;-73
2022/08/05 08:54:07;;;;;;;9.38;3.30;;;26.20;99.90;;;;;;5045765;28;20056;-73
2022/08/05 08:56:33;;;;;;;8.52;3.85;;;26.30;99.90;;;;;;5045267;28;20815;-73
2022/08/05 08:58:59;;;;;;;7.45;3.60;;;26.40;99.90;;;;;;5051304;28;20047;-73
2022/08/05 09:01:25;;;;;;;10.77;3.00;;;26.40;99.90;;;;;;5051668;28;20571;-73
2022/08/05 09:03:53;;;;;;;9.27;3.30;;;26.50;99.90;;;;;;5051838;28;20064;-72
2022/08/05 09:06:19;;;;;;;8.15;3.25;;;26.50;99.90;;;;;;5051513;28;20112;-72
2022/08/05 09:08:44;;;;;;;6.72;3.25;;;26.70;99.90;;;;;;5051949;28;20025;-72
2022/08/05 09:11:11;;;;;;;10.27;3.22;;;26.80;99.90;;;;;;5052524;28;20394;-72
2022/08/05 09:13:37;;;;;;;10.70;3.55;;;26.90;99.90;;;;;;5046701;28;20384;-72
2022/08/05 09:16:03;;;;;;;8.35;3.30;;;27.10;99.90;;;;;;5051045;28;20025;-72
2022/08/05 09:18:29;;;;;;;8.68;3.30;;;27.20;99.90;;;;;;5051556;28;20666;-72
2022/08/05 09:20:55;;;;;;;8.10;3.35;;;27.40;99.90;;;;;;5034343;28;20091;-73
2022/08/05 09:23:20;;;;;;;14.20;2.97;;;27.70;99.90;;;;;;5052256;28;20091;-73
2022/08/05 09:25:52;;;;;;;13.68;3.72;;;27.90;99.90;;;;;;5052169;28;20086;-73
2022/08/05 09:28:24;;;;;;;11.48;3.80;;;28.20;99.90;;;;;;5052182;28;20072;-73
2022/08/05 09:31:00;;;;;;;11.52;3.45;;;28.40;99.90;;;;;;5052023;28;20553;-73
2022/08/05 09:33:25;;;;;;;11.98;3.42;;;28.60;99.90;;;;;;5051786;28;20405;-72
2022/08/05 09:36:02;;;;;;;9.43;3.30;;;29.00;99.90;;;;;;5052955;28;20033;-70
2022/08/05 09:38:28;;;;;;;9.00;3.08;;;29.20;99.90;;;;;;5023671;28;20382;-70
2022/08/05 09:41:05;;;;;;;9.45;3.45;;;29.40;99.90;;;;;;5053795;28;20041;-70
2022/08/05 09:43:34;;;;;;;7.10;3.13;;;29.50;99.90;;;;;;5053832;28;20172;-70
2022/08/05 09:46:00;;;;;;;6.80;2.78;;;29.60;99.90;;;;;;5053552;28;20025;-69
2022/08/05 09:48:28;;;;;;;8.32;3.03;;;29.60;99.90;;;;;;5053596;28;20021;-70
2022/08/05 09:51:01;;;;;;;7.63;3.22;;;29.80;99.90;;;;;;5053439;28;20112;-69
2022/08/05 09:53:28;;;;;;;6.63;2.80;;;29.70;99.90;;;;;;5053308;28;20119;-70
2022/08/05 09:56:03;;;;;;;5.25;2.88;;;29.50;99.90;;;;;;5053303;28;20052;-70
2022/08/05 09:58:28;;;;;;;6.93;3.30;;;29.50;99.90;;;;;;5022599;28;20458;-70
2022/08/05 10:00:57;;;;;;;5.32;2.97;;;29.40;99.90;;;;;;5053171;28;20041;-70
2022/08/05 10:03:23;;;;;;;6.72;2.65;;;29.30;99.90;;;;;;5053158;28;20025;-70
2022/08/05 10:06:09;;;;;;;51.28;6.97;;;29.50;99.90;;;;;;5053190;28;20500;-70
2022/08/05 10:08:37;;;;;;;12.32;3.60;;;29.70;99.90;;;;;;5039813;28;20035;-70
2022/08/05 10:11:11;;;;;;;8.90;2.88;;;30.00;99.90;;;;;;5053299;28;20028;-70
2022/08/05 10:13:38;;;;;;;10.88;3.33;;;30.10;99.90;;;;;;5049175;28;20028;-70
2022/08/05 10:16:05;;;;;;;5.80;2.58;;;30.20;99.90;;;;;;5052373;28;20251;-69
2022/08/05 10:18:31;;;;;;;7.85;2.58;;;30.40;99.90;;;;;;5052121;28;20474;-70
2022/08/05 10:21:04;;;;;;;8.23;2.70;;;30.50;99.90;;;;;;5047683;28;20552;-70
2022/08/05 10:23:31;;;;;;;7.28;2.80;;;30.50;99.90;;;;;;5052837;28;20029;-70
2022/08/05 10:26:00;;;;;;;6.90;2.90;;;30.50;99.90;;;;;;5052195;28;20017;-70
2022/08/05 10:28:27;;;;;;;7.68;2.47;;;30.50;99.90;;;;;;5048144;28;20078;-70
2022/08/05 10:30:54;;;;;;;7.30;2.85;;;30.60;99.90;;;;;;5047387;28;20033;-69
2022/08/05 10:33:22;;;;;;;9.95;2.90;;;30.60;99.90;;;;;;5051340;28;20040;-70
2022/08/05 10:35:48;;;;;;;5.97;2.28;;;30.40;99.90;;;;;;5053048;28;20382;-70
2022/08/05 10:38:14;;;;;;;4.35;2.30;;;30.50;99.90;;;;;;5051929;28;20505;-70
2022/08/05 10:40:53;;;;;;;6.70;2.80;;;30.70;99.90;;;;;;5051771;28;20032;-70
2022/08/05 10:43:49;;;;;;;6.88;2.53;;;30.80;99.90;;;;;;5051050;28;20028;-74
2022/08/05 10:46:16;;;;;;;6.28;2.80;;;30.90;99.90;;;;;;5050899;28;20766;-74
2022/08/05 10:48:47;;;;;;;5.88;2.70;;;31.10;99.90;;;;;;5050985;28;20035;-74
2022/08/05 10:51:14;;;;;;;4.28;2.67;;;31.40;99.90;;;;;;5050501;28;20040;-74
2022/08/05 10:53:54;;;;;;;7.35;2.65;;;31.30;99.90;;;;;;5051286;28;20025;-74
2022/08/05 10:56:28;;;;;;;6.45;2.55;;;31.30;99.90;;;;;;5050492;28;20095;-74
2022/08/05 10:58:53;;;;;;;6.78;2.92;;;31.50;99.10;;;;;;5038958;28;20045;-74
2022/08/05 11:01:34;;;;;;;7.03;2.67;;;31.70;99.50;;;;;;5032924;28;20029;-74
2022/08/05 11:04:05;;;;;;;10.90;2.65;;;31.70;98.70;;;;;;5050011;28;20075;-74
2022/08/05 11:06:31;;;;;;;6.60;2.55;;;31.80;98.60;;;;;;5050472;28;20533;-74
2022/08/05 11:09:20;;;;;;;5.55;2.50;;;31.80;99.30;;;;;;5050718;28;20025;-74
2022/08/05 11:11:48;;;;;;;7.03;2.78;;;31.60;99.40;;;;;;5048097;28;20072;-74
2022/08/05 11:14:27;;;;;;;5.65;2.70;;;31.70;98.60;;;;;;5047944;28;20017;-74
2022/08/05 11:17:32;;;;;;;6.32;2.72;;;31.60;98.70;;;;;;5049677;28;20478;-74
2022/08/05 11:19:58;;;;;;;7.03;2.42;;;31.40;97.50;;;;;;5042792;28;20032;-74
2022/08/05 11:22:39;;;;;;;6.63;2.47;;;31.20;98.60;;;;;;5050486;28;20083;-74
2022/08/05 11:25:29;;;;;;;8.55;2.50;;;31.40;97.30;;;;;;5050550;28;20017;-74
2022/08/05 11:28:11;;;;;;;7.10;2.50;;;31.20;98.00;;;;;;5048592;28;20025;-77
2022/08/05 11:30:55;;;;;;;6.97;2.80;;;31.10;97.80;;;;;;5048192;28;20028;-77
2022/08/05 11:33:45;;;;;;;5.57;2.40;;;31.20;99.80;;;;;;5049591;28;20029;-78
2022/08/05 11:36:13;;;;;;;5.50;2.38;;;31.20;99.00;;;;;;5049427;28;20040;-78
2022/08/05 11:38:42;;;;;;;9.55;2.53;;;31.30;97.90;;;;;;5049318;28;20044;-81
2022/08/05 11:41:21;;;;;;;6.68;2.58;;;31.70;97.20;;;;;;5035795;28;20093;-81
2022/08/05 11:44:03;;;;;;;4.78;1.90;;;31.80;98.10;;;;;;5049518;28;20059;-81
2022/08/05 11:46:31;;;;;;;5.85;2.90;;;31.70;98.10;;;;;;5044735;28;20017;-82
2022/08/05 11:48:58;;;;;;;6.75;2.58;;;31.70;97.90;;;;;;5048248;28;20056;-81
2022/08/05 11:51:25;;;;;;;5.85;2.55;;;31.60;96.80;;;;;;5048879;28;20112;-81
2022/08/05 11:53:52;;;;;;;4.50;2.40;;;31.60;96.50;;;;;;5048110;28;20031;-81
2022/08/05 11:56:18;;;;;;;6.75;2.28;;;31.40;97.30;;;;;;5049406;28;20045;-81
2022/08/05 11:58:45;;;;;;;8.35;2.55;;;31.40;97.80;;;;;;5048584;28;20542;-81
2022/08/05 12:01:18;;;;;;;6.25;2.55;;;31.50;98.90;;;;;;5049567;28;20057;-81
2022/08/05 12:03:45;;;;;;;4.57;2.53;;;31.50;97.70;;;;;;5049328;28;20017;-81
2022/08/05 12:06:13;;;;;;;3.20;2.40;;;31.90;97.80;;;;;;5049572;28;20022;-81
2022/08/05 12:08:50;;;;;;;6.53;2.17;;;32.20;98.10;;;;;;5048347;28;20112;-82
2022/08/05 12:11:36;;;;;;;6.00;2.15;;;32.60;96.60;;;;;;5049863;28;20478;-81
2022/08/05 12:14:07;;;;;;;5.93;2.40;;;32.60;94.90;;;;;;5040354;28;20053;-82
2022/08/05 12:16:41;;;;;;;6.22;2.10;;;32.50;96.30;;;;;;5049671;28;20025;-87
2022/08/05 12:19:09;;;;;;;;;;;32.60;96.30;;;;;;5048780;28;20029;-82
2022/08/05 12:21:49;;;;;;;6.03;2.28;;;32.70;96.00;;;;;;5044528;28;19919;-82
2022/08/05 12:24:19;;;;;;;4.68;2.30;;;32.80;95.70;;;;;;5046927;28;20021;-82
2022/08/05 12:26:53;;;;;;;3.53;2.13;;;32.70;94.90;;;;;;5048179;28;20025;-82
2022/08/05 12:29:27;;;;;;;5.65;2.45;;;32.60;95.00;;;;;;5049047;28;20036;-82
2022/08/05 12:31:58;;;;;;;9.57;2.47;;;32.50;95.10;;;;;;5049421;28;20018;-79
2022/08/05 12:34:29;;;;;;;7.75;2.50;;;32.40;94.80;;;;;;5045210;28;20454;-85
2022/08/05 12:36:58;;;;;;;7.57;2.03;;;32.20;94.90;;;;;;5049149;28;20087;-82
2022/08/05 12:39:24;;;;;;;7.18;2.42;;;32.30;95.20;;;;;;5031021;28;20108;-82
2022/08/05 12:41:55;;;;;;;8.02;2.53;;;32.20;94.80;;;;;;5048896;28;20025;-82
2022/08/05 12:44:21;;;;;;;11.55;2.92;;;32.20;95.10;;;;;;5048960;28;20025;-83
2022/08/05 12:46:53;;;;;;;5.55;2.42;;;32.00;95.80;;;;;;5048797;28;20040;-83
2022/08/05 12:49:18;;;;;;;6.47;2.30;;;32.20;94.60;;;;;;5049075;28;20032;-83
2022/08/05 12:51:47;;;;;;;9.93;2.83;;;32.40;94.60;;;;;;5048351;28;20033;-78
2022/08/05 12:54:29;;;;;;;5.40;2.50;;;32.40;95.10;;;;;;5052812;28;20056;-76
2022/08/05 12:56:57;;;;;;;4.10;2.40;;;32.70;93.90;;;;;;5053592;28;20045;-77
2022/08/05 12:59:27;;;;;;;5.93;2.30;;;32.70;93.80;;;;;;5053480;28;20413;-77